createdAt,value
2018-09-18T00:01:02.140Z,95179.02
2018-09-18T00:03:31.369Z,95181.89
2018-09-18T00:06:00.613Z,95176.38
2018-09-18T00:08:29.837Z,95176.42
2018-09-18T00:11:00.328Z,95179.92
2018-09-18T00:13:29.558Z,95178.56
2018-09-18T00:15:58.796Z,95183.11
2018-09-18T00:18:28.026Z,95181.69
2018-09-18T00:20:57.275Z,95181.70
2018-09-18T00:23:26.495Z,95168.98
2018-09-18T00:25:55.719Z,95172.61
2018-09-18T00:28:24.958Z,95171.28
2018-09-18T00:30:54.222Z,95166.47
2018-09-18T00:33:23.450Z,95167.88
2018-09-18T00:35:52.675Z,95160.36
2018-09-18T00:38:21.910Z,95158.45
2018-09-18T00:40:51.134Z,95159.60
2018-09-18T00:43:20.388Z,95147.76
2018-09-18T00:45:49.601Z,95157.33
2018-09-18T00:48:20.068Z,95162.09
2018-09-18T00:50:49.294Z,95157.82
2018-09-18T00:53:18.512Z,95156.28
2018-09-18T00:55:47.958Z,95157.57
2018-09-18T00:58:17.206Z,95161.08
2018-09-18T01:00:46.453Z,95157.84
2018-09-18T01:03:15.783Z,95157.84
2018-09-18T01:05:45.020Z,95157.00
2018-09-18T01:08:14.250Z,95153.05
2018-09-18T01:10:43.513Z,95158.06
2018-09-18T01:13:12.743Z,95157.66
2018-09-18T01:15:41.979Z,95156.36
2018-09-18T01:18:11.197Z,95158.01
2018-09-18T01:20:40.474Z,95164.58
2018-09-18T01:23:09.790Z,95157.67
2018-09-18T01:25:39.047Z,95159.05
2018-09-18T01:28:08.271Z,95159.93
2018-09-18T01:30:37.508Z,95161.84
2018-09-18T01:33:06.806Z,95165.22
2018-09-18T01:35:36.031Z,95159.53
2018-09-18T01:38:05.298Z,95152.47
2018-09-18T01:40:34.529Z,95150.98
2018-09-18T01:43:03.761Z,95152.00
2018-09-18T01:45:32.985Z,95151.72
2018-09-18T01:48:02.214Z,95152.75
2018-09-18T01:50:31.475Z,95155.72
2018-09-18T01:53:00.726Z,95153.19
2018-09-18T01:55:29.954Z,95157.33
2018-09-18T01:57:59.194Z,95165.58
2018-09-18T02:00:28.422Z,95165.23
2018-09-18T02:02:57.659Z,95160.98
2018-09-18T02:05:26.911Z,95165.28
2018-09-18T02:07:56.170Z,95164.00
2018-09-18T02:10:25.382Z,95164.33
2018-09-18T02:12:54.702Z,95163.02
2018-09-18T02:15:23.955Z,95168.34
2018-09-18T02:17:53.192Z,95166.22
2018-09-18T02:20:22.422Z,95170.83
2018-09-18T02:22:51.649Z,95162.94
2018-09-18T02:25:20.877Z,95162.51
2018-09-18T02:27:50.110Z,95167.19
2018-09-18T02:30:19.350Z,95167.25
2018-09-18T02:32:48.595Z,95163.14
2018-09-18T02:35:17.818Z,95171.05
2018-09-18T02:37:47.064Z,95164.20
2018-09-18T02:40:16.302Z,95165.37
2018-09-18T02:42:45.544Z,95164.19
2018-09-18T02:45:14.859Z,95165.02
2018-09-18T02:47:44.075Z,95162.94
2018-09-18T02:50:13.294Z,95160.66
2018-09-18T02:52:42.543Z,95161.92
2018-09-18T02:55:11.778Z,95165.03
2018-09-18T02:57:41.010Z,95164.39
2018-09-18T03:00:10.255Z,95170.29
2018-09-18T03:02:39.496Z,95160.33
2018-09-18T03:05:08.722Z,95160.71
2018-09-18T03:07:37.983Z,95159.55
2018-09-18T03:10:07.409Z,95164.02
2018-09-18T03:12:36.634Z,95165.48
2018-09-18T03:15:05.861Z,95165.69
2018-09-18T03:17:35.107Z,95164.67
2018-09-18T03:20:04.339Z,95171.38
2018-09-18T03:22:33.563Z,95173.70
2018-09-18T03:25:02.787Z,95172.19
2018-09-18T03:27:32.105Z,95173.94
2018-09-18T03:30:01.287Z,95175.11
2018-09-18T03:32:30.543Z,95174.13
2018-09-18T03:35:00.900Z,95174.08
2018-09-18T03:37:30.122Z,95180.94
2018-09-18T03:39:59.397Z,95184.52
2018-09-18T03:42:28.659Z,95185.16
2018-09-18T03:44:57.923Z,95188.56
2018-09-18T03:47:27.159Z,95196.49
2018-09-18T03:49:56.399Z,95189.94
2018-09-18T03:52:25.638Z,95187.70
2018-09-18T03:54:54.886Z,95188.38
2018-09-18T03:57:24.118Z,95179.48
2018-09-18T03:59:53.362Z,95174.55
2018-09-18T04:02:22.588Z,95174.84
2018-09-18T04:04:51.815Z,95176.56
2018-09-18T04:07:21.042Z,95173.17
2018-09-18T04:09:50.283Z,95173.67
2018-09-18T04:12:19.502Z,95169.95
2018-09-18T04:14:48.750Z,95176.76
2018-09-18T04:17:18.054Z,95170.75
2018-09-18T04:19:47.283Z,95173.57
2018-09-18T04:22:16.516Z,95180.03
2018-09-18T04:24:45.749Z,95184.56
2018-09-18T04:27:14.971Z,95184.46
2018-09-18T04:29:44.206Z,95190.87
2018-09-18T04:32:13.445Z,95192.30
2018-09-18T04:34:42.682Z,95184.22
2018-09-18T04:37:11.911Z,95187.88
2018-09-18T04:39:41.193Z,95184.80
2018-09-18T04:42:10.416Z,95187.31
2018-09-18T04:44:39.659Z,95197.14
2018-09-18T04:47:08.912Z,95204.59
2018-09-18T04:49:38.142Z,95208.06
2018-09-18T04:52:07.403Z,95215.03
2018-09-18T04:54:36.647Z,95213.56
2018-09-18T04:57:05.930Z,95210.76
2018-09-18T04:59:35.319Z,95208.80
2018-09-18T05:02:04.582Z,95208.13
2018-09-18T05:04:33.916Z,95214.17
2018-09-18T05:07:03.154Z,95212.37
2018-09-18T05:09:32.378Z,95216.91
2018-09-18T05:12:01.625Z,95221.37
2018-09-18T05:14:30.867Z,95228.09
2018-09-18T05:17:00.771Z,95222.31
2018-09-18T05:19:30.033Z,95228.05
2018-09-18T05:22:00.530Z,95230.04
2018-09-18T05:24:29.759Z,95234.67
2018-09-18T05:26:59.014Z,95241.62
2018-09-18T05:29:28.261Z,95234.86
2018-09-18T05:31:57.483Z,95236.61
2018-09-18T05:34:26.700Z,95239.13
2018-09-18T05:36:55.983Z,95238.78
2018-09-18T05:39:25.226Z,95242.66
2018-09-18T05:41:54.661Z,95236.33
2018-09-18T05:44:23.941Z,95240.88
2018-09-18T05:46:53.186Z,95241.44
2018-09-18T05:49:23.738Z,95236.56
2018-09-18T05:51:52.968Z,95246.52
2018-09-18T05:54:22.208Z,95248.54
2018-09-18T05:56:51.441Z,95247.63
2018-09-18T05:59:20.994Z,95247.50
2018-09-18T06:01:50.258Z,95243.47
2018-09-18T06:04:19.627Z,95240.74
2018-09-18T06:06:48.858Z,95245.48
2018-09-18T06:09:18.092Z,95242.73
2018-09-18T06:11:47.329Z,95243.45
2018-09-18T06:14:16.554Z,95235.31
2018-09-18T06:16:45.769Z,95241.34
2018-09-18T06:19:15.084Z,95240.96
2018-09-18T06:21:44.278Z,95241.23
2018-09-18T06:24:13.615Z,95236.87
2018-09-18T06:26:42.828Z,95241.28
2018-09-18T06:29:12.379Z,95240.30
2018-09-18T06:31:41.836Z,95241.40
2018-09-18T06:34:11.063Z,95250.67
2018-09-18T06:36:40.275Z,95250.47
2018-09-18T06:39:11.030Z,95250.33
2018-09-18T06:41:40.550Z,95251.87
2018-09-18T06:44:09.798Z,95260.11
2018-09-18T06:46:39.030Z,95258.79
2018-09-18T06:49:08.241Z,95257.73
2018-09-18T06:51:37.509Z,95259.83
2018-09-18T06:54:06.755Z,95256.81
2018-09-18T06:56:36.000Z,95263.17
2018-09-18T06:59:05.214Z,95256.62
2018-09-18T07:01:34.455Z,95235.87
2018-09-18T07:04:03.661Z,95254.72
2018-09-18T07:06:32.926Z,95261.02
2018-09-18T07:09:02.150Z,95259.84
2018-09-18T07:11:31.385Z,95262.09
2018-09-18T07:14:00.618Z,95261.31
2018-09-18T07:16:29.845Z,95266.59
2018-09-18T07:18:59.113Z,95255.94
2018-09-18T07:21:28.335Z,95249.28
2018-09-18T07:23:58.794Z,95253.59
2018-09-18T07:26:28.023Z,95242.92
2018-09-18T07:28:57.229Z,95248.69
2018-09-18T07:31:26.473Z,95245.89
2018-09-18T07:33:55.717Z,95251.44
2018-09-18T07:36:24.931Z,95249.83
2018-09-18T07:38:54.158Z,95249.59
2018-09-18T07:41:23.401Z,95248.33
2018-09-18T07:43:52.646Z,95250.50
2018-09-18T07:46:21.898Z,95246.28
2018-09-18T07:48:51.115Z,95253.05
2018-09-18T07:51:20.350Z,95251.52
2018-09-18T07:53:49.574Z,95251.31
2018-09-18T07:56:18.790Z,95250.88
2018-09-18T07:58:48.034Z,95256.97
2018-09-18T08:01:17.262Z,95259.77
2018-09-18T08:03:46.472Z,95255.89
2018-09-18T08:06:15.687Z,95256.85
2018-09-18T08:08:44.926Z,95252.37
2018-09-18T08:11:14.203Z,95251.81
2018-09-18T08:13:43.423Z,95257.42
2018-09-18T08:16:12.651Z,95250.03
2018-09-18T08:18:41.941Z,95249.50
2018-09-18T08:21:11.147Z,95256.23
2018-09-18T08:23:40.399Z,95254.86
2018-09-18T08:26:09.609Z,95263.04
2018-09-18T08:28:38.831Z,95258.98
2018-09-18T08:31:08.046Z,95258.88
2018-09-18T08:33:37.265Z,95254.60
2018-09-18T08:36:06.646Z,95263.97
2018-09-18T08:38:42.543Z,95260.78
2018-09-18T08:41:11.765Z,95254.30
2018-09-18T08:43:41.024Z,95251.81
2018-09-18T08:46:10.283Z,95263.43
2018-09-18T08:48:43.511Z,95255.55
2018-09-18T08:51:12.723Z,95255.98
2018-09-18T08:53:41.995Z,95250.01
2018-09-18T08:56:11.181Z,95257.44
2018-09-18T08:58:40.415Z,95255.11
2018-09-18T09:01:09.734Z,95248.24
2018-09-18T09:03:39.002Z,95245.90
2018-09-18T09:06:08.351Z,95246.86
2018-09-18T09:08:37.501Z,95251.95
2018-09-18T09:11:06.736Z,95249.66
2018-09-18T09:13:36.315Z,95242.98
2018-09-18T09:16:05.513Z,95251.69
2018-09-18T09:18:34.799Z,95242.12
2018-09-18T09:21:04.023Z,95236.43
2018-09-18T09:23:33.199Z,95237.59
2018-09-18T09:26:02.453Z,95233.04
2018-09-18T09:28:31.684Z,95236.34
2018-09-18T09:31:01.384Z,95237.30
2018-09-18T09:33:30.889Z,95234.05
2018-09-18T09:36:00.082Z,95230.05
2018-09-18T09:38:29.335Z,95230.09
2018-09-18T09:40:58.559Z,95227.95
2018-09-18T09:43:27.807Z,95227.94
2018-09-18T09:45:57.050Z,95225.20
2018-09-18T09:48:26.280Z,95230.91
2018-09-18T09:50:55.499Z,95223.84
2018-09-18T09:53:24.719Z,95220.92
2018-09-18T09:55:53.954Z,95227.94
2018-09-18T09:58:23.188Z,95220.02
2018-09-18T10:00:57.673Z,95221.33
2018-09-18T10:03:27.696Z,95222.79
2018-09-18T10:05:56.921Z,95222.52
2018-09-18T10:08:26.146Z,95230.41
2018-09-18T10:10:55.507Z,95227.17
2018-09-18T10:13:24.607Z,95225.88
2018-09-18T10:15:53.818Z,95218.90
2018-09-18T10:18:23.060Z,95217.53
2018-09-18T10:20:52.270Z,95216.05
2018-09-18T10:23:21.514Z,95216.19
2018-09-18T10:25:50.780Z,95215.05
2018-09-18T10:28:20.020Z,95216.14
2018-09-18T10:30:49.224Z,95212.67
2018-09-18T10:33:18.470Z,95215.46
2018-09-18T10:35:47.686Z,95211.15
2018-09-18T10:38:16.954Z,95206.38
2018-09-18T10:40:46.209Z,95212.95
2018-09-18T10:43:15.459Z,95211.86
2018-09-18T10:45:44.671Z,95208.92
2018-09-18T10:48:13.969Z,95207.60
2018-09-18T10:50:43.199Z,95206.02
2018-09-18T10:53:12.422Z,95201.95
2018-09-18T10:55:41.649Z,95203.20
2018-09-18T10:58:10.880Z,95205.95
2018-09-18T11:00:40.114Z,95201.83
2018-09-18T11:03:09.377Z,95201.93
2018-09-18T11:05:38.576Z,95202.61
2018-09-18T11:08:07.840Z,95204.27
2018-09-18T11:10:37.071Z,95202.38
2018-09-18T11:13:06.464Z,95195.28
2018-09-18T11:15:35.752Z,95198.30
2018-09-18T11:18:04.882Z,95190.67
2018-09-18T11:20:34.103Z,95189.47
2018-09-18T11:23:03.324Z,95194.16
2018-09-18T11:25:32.589Z,95192.75
2018-09-18T11:28:01.781Z,95186.05
2018-09-18T11:30:31.062Z,95191.41
2018-09-18T11:33:01.562Z,95183.09
2018-09-18T11:35:30.585Z,95177.85
2018-09-18T11:38:01.050Z,95176.61
2018-09-18T11:40:30.294Z,95178.25
2018-09-18T11:42:59.522Z,95176.55
2018-09-18T11:45:28.806Z,95173.55
2018-09-18T11:47:57.998Z,95175.89
2018-09-18T11:50:27.407Z,95173.31
2018-09-18T11:52:56.644Z,95170.48
2018-09-18T11:55:25.850Z,95170.24
2018-09-18T11:57:55.070Z,95170.34
2018-09-18T12:00:24.289Z,95165.61
2018-09-18T12:02:53.643Z,95167.94
2018-09-18T12:05:22.818Z,95162.89
2018-09-18T12:07:52.030Z,95165.88
2018-09-18T12:10:21.461Z,95163.13
2018-09-18T12:12:50.667Z,95155.88
2018-09-18T12:15:19.941Z,95158.12
2018-09-18T12:17:49.176Z,95159.28
2018-09-18T12:20:18.409Z,95154.68
2018-09-18T12:22:47.746Z,95153.31
2018-09-18T12:25:16.987Z,95155.77
2018-09-18T12:27:46.266Z,95152.31
2018-09-18T12:30:15.466Z,95138.78
2018-09-18T12:32:44.682Z,95140.48
2018-09-18T12:35:13.934Z,95141.89
2018-09-18T12:37:43.999Z,95140.78
2018-09-18T12:40:13.230Z,95143.63
2018-09-18T12:42:42.534Z,95137.16
2018-09-18T12:45:11.713Z,95138.16
2018-09-18T12:47:40.924Z,95139.34
2018-09-18T12:50:10.264Z,95134.20
2018-09-18T12:52:39.390Z,95143.49
2018-09-18T12:55:08.614Z,95133.02
2018-09-18T12:57:38.121Z,95134.44
2018-09-18T13:00:07.645Z,95136.19
2018-09-18T13:02:36.821Z,95135.99
2018-09-18T13:05:06.106Z,95131.64
2018-09-18T13:07:35.344Z,95130.81
2018-09-18T13:10:04.582Z,95123.87
2018-09-18T13:12:33.800Z,95127.00
2018-09-18T13:15:03.042Z,95124.84
2018-09-18T13:17:32.349Z,95127.27
2018-09-18T13:20:01.517Z,95127.24
2018-09-18T13:22:30.709Z,95123.13
2018-09-18T13:24:59.927Z,95123.42
2018-09-18T13:27:29.146Z,95118.22
2018-09-18T13:29:58.383Z,95109.27
2018-09-18T13:32:27.661Z,95113.94
2018-09-18T13:34:56.896Z,95116.70
2018-09-18T13:37:26.981Z,95111.02
2018-09-18T13:39:56.220Z,95111.30
2018-09-18T13:42:25.434Z,95109.56
2018-09-18T13:44:54.979Z,95106.11
2018-09-18T13:47:24.207Z,95103.47
2018-09-18T13:49:53.462Z,95107.11
2018-09-18T13:52:22.715Z,95106.70
2018-09-18T13:54:51.921Z,95106.17
2018-09-18T13:57:21.188Z,95105.11
2018-09-18T13:59:50.451Z,95106.02
2018-09-18T14:02:19.792Z,95099.77
2018-09-18T14:04:49.040Z,95100.99
2018-09-18T14:07:18.221Z,95102.38
2018-09-18T14:09:48.333Z,95093.20
2018-09-18T14:12:17.781Z,95097.30
2018-09-18T14:14:47.074Z,95099.91
2018-09-18T14:17:16.481Z,95092.91
2018-09-18T14:19:45.705Z,95091.84
2018-09-18T14:22:14.954Z,95090.53
2018-09-18T14:24:44.155Z,95089.05
2018-09-18T14:27:13.398Z,95093.50
2018-09-18T14:29:42.678Z,95091.36
2018-09-18T14:32:11.958Z,95087.24
2018-09-18T14:34:41.169Z,95085.45
2018-09-18T14:37:10.379Z,95085.20
2018-09-18T14:39:39.610Z,95084.85
2018-09-18T14:42:08.844Z,95084.39
2018-09-18T14:44:38.073Z,95085.47
2018-09-18T14:47:07.318Z,95084.13
2018-09-18T14:49:36.539Z,95082.69
2018-09-18T14:52:05.768Z,95077.56
2018-09-18T14:54:34.983Z,95076.83
2018-09-18T14:57:04.198Z,95071.79
2018-09-18T14:59:33.431Z,95072.77
2018-09-18T15:02:02.651Z,95077.05
2018-09-18T15:04:31.882Z,95071.42
2018-09-18T15:07:01.865Z,95076.06
2018-09-18T15:09:31.518Z,95076.66
2018-09-18T15:12:00.771Z,95075.26
2018-09-18T15:14:29.998Z,95076.02
2018-09-18T15:16:59.228Z,95078.13
2018-09-18T15:19:28.455Z,95077.78
2018-09-18T15:21:57.759Z,95075.84
2018-09-18T15:24:26.910Z,95081.88
2018-09-18T15:26:56.138Z,95077.86
2018-09-18T15:29:25.374Z,95083.38
2018-09-18T15:31:54.635Z,95076.34
2018-09-18T15:34:23.894Z,95078.84
2018-09-18T15:36:53.147Z,95080.13
2018-09-18T15:39:22.449Z,95085.39
2018-09-18T15:41:51.654Z,95081.46
2018-09-18T15:44:20.898Z,95079.05
2018-09-18T15:46:50.139Z,95085.39
2018-09-18T15:49:19.545Z,95090.09
2018-09-18T15:51:48.902Z,95093.25
2018-09-18T15:54:18.086Z,95096.62
2018-09-18T15:56:47.292Z,95099.75
2018-09-18T15:59:16.555Z,95115.22
2018-09-18T16:01:45.784Z,95125.50
2018-09-18T16:04:15.006Z,95135.12
2018-09-18T16:06:44.238Z,95144.66
2018-09-18T16:09:13.463Z,95149.28
2018-09-18T16:11:42.690Z,95159.92
2018-09-18T16:14:11.956Z,95160.22
2018-09-18T16:16:41.283Z,95163.74
2018-09-18T16:19:10.511Z,95177.83
2018-09-18T16:21:39.707Z,95182.45
2018-09-18T16:24:08.955Z,95200.13
2018-09-18T16:26:38.179Z,95195.78
2018-09-18T16:29:07.438Z,95193.71
2018-09-18T16:31:36.655Z,95203.66
2018-09-18T16:34:05.902Z,95207.70
2018-09-18T16:36:35.154Z,95210.22
2018-09-18T16:39:05.621Z,95209.00
2018-09-18T16:41:34.854Z,95208.05
2018-09-18T16:44:04.086Z,95196.75
2018-09-18T16:46:33.324Z,95196.00
2018-09-18T16:49:03.870Z,95200.88
2018-09-18T16:51:33.350Z,95211.52
2018-09-18T16:54:02.562Z,95199.33
2018-09-18T16:56:31.787Z,95195.41
2018-09-18T16:59:01.991Z,95196.88
2018-09-18T17:01:31.922Z,95199.02
2018-09-18T17:04:01.154Z,95206.70
2018-09-18T17:06:30.391Z,95206.95
2018-09-18T17:08:59.586Z,95211.15
2018-09-18T17:11:28.834Z,95221.66
2018-09-18T17:13:58.073Z,95228.75
2018-09-18T17:16:27.406Z,95232.45
2018-09-18T17:18:56.582Z,95232.61
2018-09-18T17:21:25.802Z,95183.60
2018-09-18T17:23:55.008Z,95248.58
2018-09-18T17:26:24.247Z,95250.84
2018-09-18T17:28:53.628Z,95253.36
2018-09-18T17:31:22.708Z,95257.73
2018-09-18T17:33:51.930Z,95259.59
2018-09-18T17:36:21.142Z,95255.80
2018-09-18T17:38:50.362Z,95253.35
2018-09-18T17:41:19.639Z,95260.56
2018-09-18T17:43:48.805Z,95261.39
2018-09-18T17:46:18.031Z,95259.34
2018-09-18T17:48:47.258Z,95266.73
2018-09-18T17:51:16.468Z,95266.13
2018-09-18T17:53:46.299Z,95272.31
2018-09-18T17:56:15.543Z,95274.27
2018-09-18T17:58:44.763Z,95273.63
2018-09-18T18:01:14.236Z,95272.02
2018-09-18T18:03:43.449Z,95268.84
2018-09-18T18:06:12.682Z,95271.67
2018-09-18T18:08:41.988Z,95266.30
2018-09-18T18:11:11.138Z,95263.95
2018-09-18T18:13:40.390Z,95261.09
2018-09-18T18:16:09.636Z,95270.53
2018-09-18T18:18:38.871Z,95264.02
2018-09-18T18:21:08.242Z,95270.17
2018-09-18T18:23:37.522Z,95270.17
2018-09-18T18:26:06.711Z,95280.41
2018-09-18T18:28:35.934Z,95293.86
2018-09-18T18:31:05.219Z,95315.50
2018-09-18T18:33:34.484Z,95316.75
2018-09-18T18:36:03.802Z,95315.60
2018-09-18T18:38:33.076Z,95314.46
2018-09-18T18:41:02.338Z,95327.13
2018-09-18T18:43:31.528Z,95322.88
2018-09-18T18:46:00.827Z,95319.36
2018-09-18T18:48:30.132Z,95316.84
2018-09-18T18:50:59.335Z,95314.52
2018-09-18T18:53:28.587Z,95305.25
2018-09-18T18:55:57.817Z,95297.72
2018-09-18T18:58:27.080Z,95289.67
2018-09-18T19:00:56.356Z,95278.88
2018-09-18T19:03:25.547Z,95286.42
2018-09-18T19:05:54.794Z,95283.95
2018-09-18T19:08:24.029Z,95290.88
2018-09-18T19:10:53.267Z,95302.40
2018-09-18T19:13:22.497Z,95315.67
2018-09-18T19:15:51.734Z,95338.27
2018-09-18T19:18:21.027Z,95364.50
2018-09-18T19:20:50.199Z,95354.19
2018-09-18T19:23:19.486Z,95346.70
2018-09-18T19:25:48.698Z,95355.26
2018-09-18T19:28:17.896Z,95350.78
2018-09-18T19:30:47.406Z,95346.00
2018-09-18T19:33:16.811Z,95342.29
2018-09-18T19:35:45.860Z,95348.80
2018-09-18T19:38:15.092Z,95338.61
2018-09-18T19:40:44.319Z,95333.96
2018-09-18T19:43:13.645Z,95344.55
2018-09-18T19:45:42.827Z,95345.55
2018-09-18T19:48:12.033Z,95344.45
2018-09-18T19:50:41.293Z,95342.56
2018-09-18T19:53:10.500Z,95342.63
2018-09-18T19:55:39.765Z,95356.63
2018-09-18T19:58:08.979Z,95364.17
2018-09-18T20:00:38.202Z,95368.02
2018-09-18T20:03:07.500Z,95373.20
2018-09-18T20:05:36.698Z,95372.44
2018-09-18T20:08:05.994Z,95364.73
2018-09-18T20:10:35.228Z,95355.74
2018-09-18T20:13:04.448Z,95333.80
2018-09-18T20:15:33.692Z,95335.58
2018-09-18T20:18:02.962Z,95340.53
2018-09-18T20:20:32.196Z,95338.72
2018-09-18T20:23:02.279Z,95346.98
2018-09-18T20:25:31.499Z,95343.35
2018-09-18T20:28:00.715Z,95352.37
2018-09-18T20:30:29.944Z,95346.75
2018-09-18T20:32:59.180Z,95352.96
2018-09-18T20:35:28.419Z,95359.27
2018-09-18T20:37:57.679Z,95366.87
2018-09-18T20:40:26.927Z,95364.83
2018-09-18T20:42:56.252Z,95369.52
2018-09-18T20:45:25.490Z,95369.86
2018-09-18T20:47:54.697Z,95373.57
2018-09-18T20:50:24.427Z,95370.02
2018-09-18T20:52:55.057Z,95366.63
2018-09-18T20:55:24.456Z,95367.48
2018-09-18T20:57:54.912Z,95364.41
2018-09-18T21:00:24.127Z,95368.08
2018-09-18T21:02:53.350Z,95371.39
2018-09-18T21:05:22.607Z,95369.20
2018-09-18T21:07:51.932Z,95363.96
2018-09-18T21:10:21.131Z,95364.11
2018-09-18T21:12:50.389Z,95368.38
2018-09-18T21:15:19.632Z,95364.53
2018-09-18T21:17:48.825Z,95375.25
2018-09-18T21:20:18.105Z,95373.02
2018-09-18T21:22:47.318Z,95375.63
2018-09-18T21:25:20.817Z,95371.55
2018-09-18T21:27:50.044Z,95373.36
2018-09-18T21:30:19.271Z,95375.19
2018-09-18T21:32:48.483Z,95369.98
2018-09-18T21:35:18.719Z,95368.80
2018-09-18T21:37:47.956Z,95367.41
2018-09-18T21:40:17.242Z,95366.02
2018-09-18T21:42:46.455Z,95369.23
2018-09-18T21:45:15.678Z,95371.42
2018-09-18T21:47:44.925Z,95369.73
2018-09-18T21:50:14.152Z,95373.25
2018-09-18T21:52:43.364Z,95380.47
2018-09-18T21:55:12.583Z,95388.59
2018-09-18T21:57:41.799Z,95388.92
2018-09-18T22:00:11.036Z,95396.77
2018-09-18T22:02:40.293Z,95390.61
2018-09-18T22:05:09.535Z,95393.06
2018-09-18T22:07:38.781Z,95394.78
2018-09-18T22:10:08.009Z,95389.05
2018-09-18T22:12:38.118Z,95394.89
2018-09-18T22:15:07.604Z,95395.22
2018-09-18T22:17:36.822Z,95399.73
2018-09-18T22:20:07.346Z,95400.56
2018-09-18T22:22:36.607Z,95397.66
2018-09-18T22:25:05.970Z,95402.18
2018-09-18T22:27:35.202Z,95400.69
2018-09-18T22:30:04.779Z,95397.84
2018-09-18T22:32:34.030Z,95399.61
2018-09-18T22:35:03.266Z,95409.28
2018-09-18T22:37:32.533Z,95403.84
2018-09-18T22:40:01.744Z,95400.92
2018-09-18T22:42:30.995Z,95391.67
2018-09-18T22:45:00.217Z,95388.98
2018-09-18T22:47:29.449Z,95390.97
2018-09-18T22:49:58.679Z,95380.95
2018-09-18T22:52:27.929Z,95387.86
2018-09-18T22:54:57.149Z,95387.04
2018-09-18T22:57:26.447Z,95388.86
2018-09-18T22:59:56.839Z,95397.77
2018-09-18T23:02:26.098Z,95389.83
2018-09-18T23:04:55.387Z,95394.18
2018-09-18T23:07:24.608Z,95386.80
2018-09-18T23:09:53.847Z,95388.25
2018-09-18T23:12:23.073Z,95385.44
2018-09-18T23:14:52.314Z,95389.49
2018-09-18T23:17:21.530Z,95387.05
2018-09-18T23:19:50.759Z,95385.57
2018-09-18T23:22:20.009Z,95386.20
2018-09-18T23:24:49.246Z,95377.47
2018-09-18T23:27:18.526Z,95376.02
2018-09-18T23:29:47.739Z,95378.78
2018-09-18T23:32:16.975Z,95371.42
2018-09-18T23:34:46.197Z,95367.48
2018-09-18T23:37:15.447Z,95365.56
2018-09-18T23:39:44.692Z,95362.05
2018-09-18T23:42:14.002Z,95356.06
2018-09-18T23:44:43.161Z,95350.80
2018-09-18T23:47:12.397Z,95347.10
2018-09-18T23:49:41.625Z,95339.43
2018-09-18T23:52:10.856Z,95345.20
2018-09-18T23:54:40.093Z,95344.51
2018-09-18T23:57:09.314Z,95351.44
2018-09-18T23:59:38.558Z,95346.41
